sensor_id;sensor_type;location;lat;lon;timestamp;P1;durP1;ratioP1;P2;durP2;ratioP2
21022;SDS011;10669;51.076;3.714;2022-07-12T00:02:15;5.63;;;5.03;;
21022;SDS011;10669;51.076;3.714;2022-07-12T00:04:41;9.20;;;5.40;;
21022;SDS011;10669;51.076;3.714;2022-07-12T00:07:07;7.32;;;5.60;;
21022;SDS011;10669;51.076;3.714;2022-07-12T00:09:33;7.30;;;4.70;;
21022;SDS011;10669;51.076;3.714;2022-07-12T00:12:00;6.18;;;4.90;;
21022;SDS011;10669;51.076;3.714;2022-07-12T00:14:25;6.45;;;5.30;;
21022;SDS011;10669;51.076;3.714;2022-07-12T00:16:52;6.28;;;5.68;;
21022;SDS011;10669;51.076;3.714;2022-07-12T00:19:18;8.00;;;5.18;;
21022;SDS011;10669;51.076;3.714;2022-07-12T00:21:43;6.63;;;5.07;;
21022;SDS011;10669;51.076;3.714;2022-07-12T00:24:09;5.55;;;4.97;;
21022;SDS011;10669;51.076;3.714;2022-07-12T00:26:35;7.05;;;5.47;;
21022;SDS011;10669;51.076;3.714;2022-07-12T00:29:01;9.70;;;5.80;;
21022;SDS011;10669;51.076;3.714;2022-07-12T00:31:27;8.13;;;5.78;;
21022;SDS011;10669;51.076;3.714;2022-07-12T00:33:52;6.13;;;5.38;;
21022;SDS011;10669;51.076;3.714;2022-07-12T00:36:18;7.75;;;5.60;;
21022;SDS011;10669;51.076;3.714;2022-07-12T00:38:45;8.82;;;5.53;;
21022;SDS011;10669;51.076;3.714;2022-07-12T00:41:10;8.32;;;5.20;;
21022;SDS011;10669;51.076;3.714;2022-07-12T00:43:36;6.72;;;5.88;;
21022;SDS011;10669;51.076;3.714;2022-07-12T00:46:02;8.27;;;5.50;;
21022;SDS011;10669;51.076;3.714;2022-07-12T00:48:28;7.47;;;6.05;;
21022;SDS011;10669;51.076;3.714;2022-07-12T00:50:56;7.90;;;5.82;;
21022;SDS011;10669;51.076;3.714;2022-07-12T00:53:22;7.22;;;6.00;;
21022;SDS011;10669;51.076;3.714;2022-07-12T00:55:53;11.77;;;7.07;;
21022;SDS011;10669;51.076;3.714;2022-07-12T00:58:20;6.70;;;5.18;;
21022;SDS011;10669;51.076;3.714;2022-07-12T01:00:49;8.38;;;6.03;;
21022;SDS011;10669;51.076;3.714;2022-07-12T01:03:16;7.05;;;6.28;;
21022;SDS011;10669;51.076;3.714;2022-07-12T01:05:43;10.27;;;6.13;;
21022;SDS011;10669;51.076;3.714;2022-07-12T01:08:10;9.88;;;5.93;;
21022;SDS011;10669;51.076;3.714;2022-07-12T01:10:37;9.80;;;5.53;;
21022;SDS011;10669;51.076;3.714;2022-07-12T01:13:04;9.43;;;5.55;;
21022;SDS011;10669;51.076;3.714;2022-07-12T01:15:32;10.07;;;6.38;;
21022;SDS011;10669;51.076;3.714;2022-07-12T01:17:59;10.45;;;6.03;;
21022;SDS011;10669;51.076;3.714;2022-07-12T01:20:27;8.23;;;6.43;;
21022;SDS011;10669;51.076;3.714;2022-07-12T01:22:53;12.55;;;6.70;;
21022;SDS011;10669;51.076;3.714;2022-07-12T01:25:21;10.10;;;6.90;;
21022;SDS011;10669;51.076;3.714;2022-07-12T01:27:47;8.50;;;6.97;;
21022;SDS011;10669;51.076;3.714;2022-07-12T01:30:13;7.18;;;6.20;;
21022;SDS011;10669;51.076;3.714;2022-07-12T01:32:39;7.70;;;5.90;;
21022;SDS011;10669;51.076;3.714;2022-07-12T01:35:05;7.97;;;6.22;;
21022;SDS011;10669;51.076;3.714;2022-07-12T01:37:35;8.02;;;6.20;;
21022;SDS011;10669;51.076;3.714;2022-07-12T01:40:03;8.15;;;6.38;;
21022;SDS011;10669;51.076;3.714;2022-07-12T01:42:31;7.13;;;5.72;;
21022;SDS011;10669;51.076;3.714;2022-07-12T01:44:58;6.20;;;5.18;;
21022;SDS011;10669;51.076;3.714;2022-07-12T01:47:25;6.97;;;5.28;;
21022;SDS011;10669;51.076;3.714;2022-07-12T01:49:52;6.47;;;5.35;;
21022;SDS011;10669;51.076;3.714;2022-07-12T01:52:18;7.30;;;5.47;;
21022;SDS011;10669;51.076;3.714;2022-07-12T01:54:45;7.28;;;5.95;;
21022;SDS011;10669;51.076;3.714;2022-07-12T01:57:11;6.38;;;5.55;;
21022;SDS011;10669;51.076;3.714;2022-07-12T01:59:37;8.60;;;5.35;;
21022;SDS011;10669;51.076;3.714;2022-07-12T02:02:05;6.00;;;5.40;;
21022;SDS011;10669;51.076;3.714;2022-07-12T02:04:32;5.97;;;5.30;;
21022;SDS011;10669;51.076;3.714;2022-07-12T02:06:58;5.20;;;4.70;;
21022;SDS011;10669;51.076;3.714;2022-07-12T02:09:24;9.23;;;5.75;;
21022;SDS011;10669;51.076;3.714;2022-07-12T02:11:50;7.88;;;5.82;;
21022;SDS011;10669;51.076;3.714;2022-07-12T02:14:17;7.97;;;4.82;;
21022;SDS011;10669;51.076;3.714;2022-07-12T02:16:42;7.15;;;5.05;;
21022;SDS011;10669;51.076;3.714;2022-07-12T02:19:09;5.80;;;4.90;;
21022;SDS011;10669;51.076;3.714;2022-07-12T02:21:36;5.68;;;4.70;;
21022;SDS011;10669;51.076;3.714;2022-07-12T02:24:02;8.80;;;5.40;;
21022;SDS011;10669;51.076;3.714;2022-07-12T02:26:28;5.15;;;4.70;;
21022;SDS011;10669;51.076;3.714;2022-07-12T02:28:54;11.55;;;5.28;;
21022;SDS011;10669;51.076;3.714;2022-07-12T02:31:21;5.80;;;4.82;;
21022;SDS011;10669;51.076;3.714;2022-07-12T02:33:46;6.25;;;5.18;;
21022;SDS011;10669;51.076;3.714;2022-07-12T02:36:12;7.20;;;5.38;;
21022;SDS011;10669;51.076;3.714;2022-07-12T02:38:39;8.90;;;5.40;;
21022;SDS011;10669;51.076;3.714;2022-07-12T02:41:05;7.07;;;4.80;;
21022;SDS011;10669;51.076;3.714;2022-07-12T02:43:31;9.43;;;5.22;;
21022;SDS011;10669;51.076;3.714;2022-07-12T02:48:30;7.43;;;5.82;;
21022;SDS011;10669;51.076;3.714;2022-07-12T02:50:57;5.90;;;5.30;;
21022;SDS011;10669;51.076;3.714;2022-07-12T02:53:24;8.93;;;5.40;;
21022;SDS011;10669;51.076;3.714;2022-07-12T02:55:50;8.68;;;6.30;;
21022;SDS011;10669;51.076;3.714;2022-07-12T02:58:16;8.98;;;5.75;;
21022;SDS011;10669;51.076;3.714;2022-07-12T03:00:42;6.32;;;5.35;;
21022;SDS011;10669;51.076;3.714;2022-07-12T03:03:11;6.63;;;5.35;;
21022;SDS011;10669;51.076;3.714;2022-07-12T03:05:38;8.48;;;5.10;;
21022;SDS011;10669;51.076;3.714;2022-07-12T03:08:04;6.63;;;5.47;;
21022;SDS011;10669;51.076;3.714;2022-07-12T03:10:32;12.00;;;5.82;;
21022;SDS011;10669;51.076;3.714;2022-07-12T03:12:58;5.88;;;4.85;;
21022;SDS011;10669;51.076;3.714;2022-07-12T03:15:24;6.07;;;5.47;;
21022;SDS011;10669;51.076;3.714;2022-07-12T03:17:50;7.15;;;5.53;;
21022;SDS011;10669;51.076;3.714;2022-07-12T03:20:16;6.57;;;5.65;;
21022;SDS011;10669;51.076;3.714;2022-07-12T03:22:42;7.32;;;5.43;;
21022;SDS011;10669;51.076;3.714;2022-07-12T03:25:11;6.53;;;5.70;;
21022;SDS011;10669;51.076;3.714;2022-07-12T03:27:37;5.85;;;4.95;;
21022;SDS011;10669;51.076;3.714;2022-07-12T03:30:03;12.32;;;6.25;;
21022;SDS011;10669;51.076;3.714;2022-07-12T03:32:31;7.85;;;5.25;;
21022;SDS011;10669;51.076;3.714;2022-07-12T03:34:57;6.18;;;5.50;;
21022;SDS011;10669;51.076;3.714;2022-07-12T03:37:22;6.90;;;5.60;;
21022;SDS011;10669;51.076;3.714;2022-07-12T03:39:48;6.43;;;5.32;;
21022;SDS011;10669;51.076;3.714;2022-07-12T03:42:14;7.40;;;5.57;;
21022;SDS011;10669;51.076;3.714;2022-07-12T03:44:40;7.78;;;5.80;;
21022;SDS011;10669;51.076;3.714;2022-07-12T03:47:05;9.27;;;6.28;;
21022;SDS011;10669;51.076;3.714;2022-07-12T03:49:31;10.02;;;6.43;;
21022;SDS011;10669;51.076;3.714;2022-07-12T03:51:56;9.07;;;6.38;;
21022;SDS011;10669;51.076;3.714;2022-07-12T03:54:22;7.72;;;5.93;;
21022;SDS011;10669;51.076;3.714;2022-07-12T03:56:48;9.65;;;7.10;;
21022;SDS011;10669;51.076;3.714;2022-07-12T03:59:32;12.27;;;6.50;;
21022;SDS011;10669;51.076;3.714;2022-07-12T04:01:58;9.20;;;6.60;;
21022;SDS011;10669;51.076;3.714;2022-07-12T04:04:24;8.57;;;6.15;;
21022;SDS011;10669;51.076;3.714;2022-07-12T04:06:50;9.93;;;6.22;;
21022;SDS011;10669;51.076;3.714;2022-07-12T04:09:17;8.27;;;6.50;;
21022;SDS011;10669;51.076;3.714;2022-07-12T04:11:42;12.20;;;6.55;;
21022;SDS011;10669;51.076;3.714;2022-07-12T04:14:09;9.52;;;6.45;;
21022;SDS011;10669;51.076;3.714;2022-07-12T04:16:35;14.05;;;6.43;;
21022;SDS011;10669;51.076;3.714;2022-07-12T04:19:02;9.45;;;6.25;;
21022;SDS011;10669;51.076;3.714;2022-07-12T04:21:29;8.48;;;5.70;;
21022;SDS011;10669;51.076;3.714;2022-07-12T04:23:56;7.47;;;6.00;;
21022;SDS011;10669;51.076;3.714;2022-07-12T04:26:21;12.93;;;6.05;;
21022;SDS011;10669;51.076;3.714;2022-07-12T04:28:48;12.82;;;6.50;;
21022;SDS011;10669;51.076;3.714;2022-07-12T04:31:13;11.73;;;6.53;;
21022;SDS011;10669;51.076;3.714;2022-07-12T04:33:39;12.30;;;6.90;;
21022;SDS011;10669;51.076;3.714;2022-07-12T04:36:05;8.13;;;6.28;;
21022;SDS011;10669;51.076;3.714;2022-07-12T04:38:31;9.93;;;6.60;;
21022;SDS011;10669;51.076;3.714;2022-07-12T04:40:56;12.88;;;6.75;;
21022;SDS011;10669;51.076;3.714;2022-07-12T04:43:22;10.98;;;7.15;;
21022;SDS011;10669;51.076;3.714;2022-07-12T04:45:51;12.18;;;7.13;;
21022;SDS011;10669;51.076;3.714;2022-07-12T04:48:17;11.80;;;7.25;;
21022;SDS011;10669;51.076;3.714;2022-07-12T04:50:43;9.80;;;7.15;;
21022;SDS011;10669;51.076;3.714;2022-07-12T04:53:09;9.48;;;7.20;;
21022;SDS011;10669;51.076;3.714;2022-07-12T04:55:35;8.93;;;7.38;;
21022;SDS011;10669;51.076;3.714;2022-07-12T04:58:01;12.10;;;7.15;;
21022;SDS011;10669;51.076;3.714;2022-07-12T05:00:28;10.23;;;7.57;;
21022;SDS011;10669;51.076;3.714;2022-07-12T05:02:53;11.30;;;7.45;;
21022;SDS011;10669;51.076;3.714;2022-07-12T05:05:19;13.95;;;6.95;;
21022;SDS011;10669;51.076;3.714;2022-07-12T05:07:44;9.88;;;7.20;;
21022;SDS011;10669;51.076;3.714;2022-07-12T05:10:10;12.55;;;7.40;;
21022;SDS011;10669;51.076;3.714;2022-07-12T05:12:36;11.48;;;7.70;;
21022;SDS011;10669;51.076;3.714;2022-07-12T05:15:07;15.15;;;7.25;;
21022;SDS011;10669;51.076;3.714;2022-07-12T05:17:34;9.55;;;7.45;;
21022;SDS011;10669;51.076;3.714;2022-07-12T05:19:59;10.20;;;7.38;;
21022;SDS011;10669;51.076;3.714;2022-07-12T05:22:25;8.77;;;7.05;;
21022;SDS011;10669;51.076;3.714;2022-07-12T05:24:51;10.13;;;7.50;;
21022;SDS011;10669;51.076;3.714;2022-07-12T05:27:17;12.85;;;7.45;;
21022;SDS011;10669;51.076;3.714;2022-07-12T05:29:44;12.77;;;7.43;;
21022;SDS011;10669;51.076;3.714;2022-07-12T05:32:10;8.85;;;7.32;;
21022;SDS011;10669;51.076;3.714;2022-07-12T05:34:36;10.27;;;7.40;;
21022;SDS011;10669;51.076;3.714;2022-07-12T05:37:04;11.00;;;7.38;;
21022;SDS011;10669;51.076;3.714;2022-07-12T05:39:30;12.95;;;7.80;;
21022;SDS011;10669;51.076;3.714;2022-07-12T05:41:55;11.80;;;7.50;;
21022;SDS011;10669;51.076;3.714;2022-07-12T05:44:21;10.60;;;7.32;;
21022;SDS011;10669;51.076;3.714;2022-07-12T05:46:49;14.90;;;8.02;;
21022;SDS011;10669;51.076;3.714;2022-07-12T05:49:16;13.45;;;7.65;;
21022;SDS011;10669;51.076;3.714;2022-07-12T05:51:42;9.98;;;7.65;;
21022;SDS011;10669;51.076;3.714;2022-07-12T05:54:26;10.10;;;7.82;;
21022;SDS011;10669;51.076;3.714;2022-07-12T05:56:52;10.88;;;6.75;;
21022;SDS011;10669;51.076;3.714;2022-07-12T05:59:18;15.88;;;7.10;;
21022;SDS011;10669;51.076;3.714;2022-07-12T06:01:45;13.82;;;7.32;;
21022;SDS011;10669;51.076;3.714;2022-07-12T06:04:10;10.80;;;7.18;;
21022;SDS011;10669;51.076;3.714;2022-07-12T06:06:36;14.57;;;7.00;;
21022;SDS011;10669;51.076;3.714;2022-07-12T06:09:02;12.02;;;6.45;;
21022;SDS011;10669;51.076;3.714;2022-07-12T06:11:29;11.65;;;6.93;;
21022;SDS011;10669;51.076;3.714;2022-07-12T06:13:54;10.88;;;7.15;;
21022;SDS011;10669;51.076;3.714;2022-07-12T06:16:21;11.85;;;6.43;;
21022;SDS011;10669;51.076;3.714;2022-07-12T06:18:47;9.75;;;8.07;;
21022;SDS011;10669;51.076;3.714;2022-07-12T06:21:13;12.50;;;8.02;;
21022;SDS011;10669;51.076;3.714;2022-07-12T06:23:40;10.43;;;7.35;;
21022;SDS011;10669;51.076;3.714;2022-07-12T06:26:06;8.98;;;7.10;;
21022;SDS011;10669;51.076;3.714;2022-07-12T06:28:32;9.35;;;7.43;;
21022;SDS011;10669;51.076;3.714;2022-07-12T06:30:58;14.68;;;7.80;;
21022;SDS011;10669;51.076;3.714;2022-07-12T06:33:26;11.80;;;8.63;;
21022;SDS011;10669;51.076;3.714;2022-07-12T06:35:51;13.30;;;8.20;;
21022;SDS011;10669;51.076;3.714;2022-07-12T06:38:17;8.13;;;7.03;;
21022;SDS011;10669;51.076;3.714;2022-07-12T06:40:46;13.10;;;8.98;;
21022;SDS011;10669;51.076;3.714;2022-07-12T06:43:13;12.38;;;7.95;;
21022;SDS011;10669;51.076;3.714;2022-07-12T06:45:39;11.10;;;7.47;;
21022;SDS011;10669;51.076;3.714;2022-07-12T06:48:06;15.90;;;8.25;;
21022;SDS011;10669;51.076;3.714;2022-07-12T06:50:32;10.52;;;7.28;;
21022;SDS011;10669;51.076;3.714;2022-07-12T06:52:58;9.30;;;7.55;;
21022;SDS011;10669;51.076;3.714;2022-07-12T06:55:25;10.13;;;6.88;;
21022;SDS011;10669;51.076;3.714;2022-07-12T06:57:51;8.45;;;6.90;;
21022;SDS011;10669;51.076;3.714;2022-07-12T07:00:16;12.18;;;6.97;;
21022;SDS011;10669;51.076;3.714;2022-07-12T07:02:42;11.23;;;6.55;;
21022;SDS011;10669;51.076;3.714;2022-07-12T07:05:08;10.32;;;6.85;;
21022;SDS011;10669;51.076;3.714;2022-07-12T07:07:33;9.02;;;6.72;;
21022;SDS011;10669;51.076;3.714;2022-07-12T07:09:59;11.32;;;7.05;;
21022;SDS011;10669;51.076;3.714;2022-07-12T07:12:25;11.65;;;6.30;;
21022;SDS011;10669;51.076;3.714;2022-07-12T07:14:50;8.20;;;5.93;;
21022;SDS011;10669;51.076;3.714;2022-07-12T07:17:16;8.38;;;5.93;;
21022;SDS011;10669;51.076;3.714;2022-07-12T07:19:43;7.32;;;5.80;;
21022;SDS011;10669;51.076;3.714;2022-07-12T07:22:09;9.27;;;5.72;;
21022;SDS011;10669;51.076;3.714;2022-07-12T07:24:35;9.13;;;5.95;;
21022;SDS011;10669;51.076;3.714;2022-07-12T07:27:01;9.23;;;5.85;;
21022;SDS011;10669;51.076;3.714;2022-07-12T07:29:27;8.52;;;5.28;;
21022;SDS011;10669;51.076;3.714;2022-07-12T07:32:11;5.40;;;4.90;;
21022;SDS011;10669;51.076;3.714;2022-07-12T07:34:36;12.27;;;5.75;;
21022;SDS011;10669;51.076;3.714;2022-07-12T07:37:03;10.38;;;5.00;;
21022;SDS011;10669;51.076;3.714;2022-07-12T07:39:28;9.18;;;5.43;;
21022;SDS011;10669;51.076;3.714;2022-07-12T07:41:54;10.07;;;5.18;;
21022;SDS011;10669;51.076;3.714;2022-07-12T07:44:19;15.85;;;5.50;;
21022;SDS011;10669;51.076;3.714;2022-07-12T07:46:45;8.90;;;5.10;;
21022;SDS011;10669;51.076;3.714;2022-07-12T07:49:11;6.57;;;4.80;;
21022;SDS011;10669;51.076;3.714;2022-07-12T07:51:37;8.77;;;4.97;;
21022;SDS011;10669;51.076;3.714;2022-07-12T07:54:02;6.20;;;4.55;;
21022;SDS011;10669;51.076;3.714;2022-07-12T07:56:28;5.80;;;4.32;;
21022;SDS011;10669;51.076;3.714;2022-07-12T07:58:54;6.78;;;5.05;;
21022;SDS011;10669;51.076;3.714;2022-07-12T08:01:20;8.80;;;4.68;;
21022;SDS011;10669;51.076;3.714;2022-07-12T08:03:45;5.80;;;4.25;;
21022;SDS011;10669;51.076;3.714;2022-07-12T08:06:11;9.50;;;5.15;;
21022;SDS011;10669;51.076;3.714;2022-07-12T08:08:37;12.80;;;4.85;;
21022;SDS011;10669;51.076;3.714;2022-07-12T08:11:03;10.40;;;4.85;;
21022;SDS011;10669;51.076;3.714;2022-07-12T08:13:28;5.60;;;4.60;;
21022;SDS011;10669;51.076;3.714;2022-07-12T08:15:54;7.47;;;4.90;;
21022;SDS011;10669;51.076;3.714;2022-07-12T08:18:19;8.73;;;5.47;;
21022;SDS011;10669;51.076;3.714;2022-07-12T08:20:46;9.95;;;4.63;;
21022;SDS011;10669;51.076;3.714;2022-07-12T08:23:12;5.95;;;5.00;;
21022;SDS011;10669;51.076;3.714;2022-07-12T08:25:38;5.32;;;4.50;;
21022;SDS011;10669;51.076;3.714;2022-07-12T08:28:03;6.15;;;4.85;;
21022;SDS011;10669;51.076;3.714;2022-07-12T08:30:29;6.93;;;4.88;;
21022;SDS011;10669;51.076;3.714;2022-07-12T08:32:55;7.00;;;5.03;;
21022;SDS011;10669;51.076;3.714;2022-07-12T08:35:21;5.28;;;4.78;;
21022;SDS011;10669;51.076;3.714;2022-07-12T08:37:46;5.80;;;4.72;;
21022;SDS011;10669;51.076;3.714;2022-07-12T08:40:12;6.65;;;4.85;;
21022;SDS011;10669;51.076;3.714;2022-07-12T08:42:41;9.55;;;4.75;;
21022;SDS011;10669;51.076;3.714;2022-07-12T08:45:07;6.22;;;5.15;;
21022;SDS011;10669;51.076;3.714;2022-07-12T08:47:33;7.45;;;5.00;;
21022;SDS011;10669;51.076;3.714;2022-07-12T08:50:08;6.70;;;5.10;;
21022;SDS011;10669;51.076;3.714;2022-07-12T08:52:36;9.95;;;5.10;;
21022;SDS011;10669;51.076;3.714;2022-07-12T08:55:18;7.68;;;5.18;;
21022;SDS011;10669;51.076;3.714;2022-07-12T08:57:57;9.95;;;5.03;;
21022;SDS011;10669;51.076;3.714;2022-07-12T09:00:25;5.72;;;4.55;;
21022;SDS011;10669;51.076;3.714;2022-07-12T09:02:53;4.95;;;4.45;;
21022;SDS011;10669;51.076;3.714;2022-07-12T09:05:22;9.32;;;5.10;;
21022;SDS011;10669;51.076;3.714;2022-07-12T09:07:50;7.63;;;4.50;;
21022;SDS011;10669;51.076;3.714;2022-07-12T09:10:17;4.95;;;4.10;;
21022;SDS011;10669;51.076;3.714;2022-07-12T09:12:43;5.43;;;4.18;;
21022;SDS011;10669;51.076;3.714;2022-07-12T09:15:11;3.75;;;3.45;;
21022;SDS011;10669;51.076;3.714;2022-07-12T09:17:40;7.28;;;4.80;;
21022;SDS011;10669;51.076;3.714;2022-07-12T09:20:12;6.53;;;3.88;;
21022;SDS011;10669;51.076;3.714;2022-07-12T09:22:47;9.57;;;3.90;;
21022;SDS011;10669;51.076;3.714;2022-07-12T09:25:17;11.23;;;4.10;;
21022;SDS011;10669;51.076;3.714;2022-07-12T09:27:53;7.53;;;4.03;;
21022;SDS011;10669;51.076;3.714;2022-07-12T09:30:21;5.75;;;4.05;;
21022;SDS011;10669;51.076;3.714;2022-07-12T09:32:48;6.55;;;3.83;;
21022;SDS011;10669;51.076;3.714;2022-07-12T09:38:39;8.63;;;4.63;;
21022;SDS011;10669;51.076;3.714;2022-07-12T09:41:16;7.70;;;3.88;;
21022;SDS011;10669;51.076;3.714;2022-07-12T09:43:42;4.05;;;3.28;;
21022;SDS011;10669;51.076;3.714;2022-07-12T09:46:10;4.53;;;3.03;;
21022;SDS011;10669;51.076;3.714;2022-07-12T09:48:36;3.33;;;3.03;;
21022;SDS011;10669;51.076;3.714;2022-07-12T09:51:02;10.70;;;4.70;;
21022;SDS011;10669;51.076;3.714;2022-07-12T09:53:32;5.90;;;4.50;;
21022;SDS011;10669;51.076;3.714;2022-07-12T09:56:03;7.15;;;4.05;;
21022;SDS011;10669;51.076;3.714;2022-07-12T10:01:12;5.97;;;4.07;;
21022;SDS011;10669;51.076;3.714;2022-07-12T10:03:40;7.28;;;3.90;;
21022;SDS011;10669;51.076;3.714;2022-07-12T10:06:07;5.35;;;3.65;;
21022;SDS011;10669;51.076;3.714;2022-07-12T10:08:34;8.30;;;3.92;;
21022;SDS011;10669;51.076;3.714;2022-07-12T10:11:00;5.18;;;3.35;;
21022;SDS011;10669;51.076;3.714;2022-07-12T10:13:26;6.10;;;3.92;;
21022;SDS011;10669;51.076;3.714;2022-07-12T10:15:58;5.97;;;3.13;;
21022;SDS011;10669;51.076;3.714;2022-07-12T10:18:26;8.02;;;3.00;;
21022;SDS011;10669;51.076;3.714;2022-07-12T10:20:53;5.03;;;2.60;;
21022;SDS011;10669;51.076;3.714;2022-07-12T10:29:04;7.32;;;3.13;;
21022;SDS011;10669;51.076;3.714;2022-07-12T10:31:35;3.58;;;2.78;;
21022;SDS011;10669;51.076;3.714;2022-07-12T10:39:36;5.05;;;2.80;;
21022;SDS011;10669;51.076;3.714;2022-07-12T10:44:38;3.03;;;2.40;;
21022;SDS011;10669;51.076;3.714;2022-07-12T10:47:05;3.97;;;2.30;;
21022;SDS011;10669;51.076;3.714;2022-07-12T10:49:33;3.95;;;1.90;;
21022;SDS011;10669;51.076;3.714;2022-07-12T10:54:39;4.43;;;2.17;;
21022;SDS011;10669;51.076;3.714;2022-07-12T11:00:09;3.33;;;2.50;;
21022;SDS011;10669;51.076;3.714;2022-07-12T11:02:36;4.78;;;2.75;;
21022;SDS011;10669;51.076;3.714;2022-07-12T11:05:02;3.08;;;2.20;;
21022;SDS011;10669;51.076;3.714;2022-07-12T11:07:28;3.83;;;2.05;;
21022;SDS011;10669;51.076;3.714;2022-07-12T11:09:55;8.80;;;2.40;;
21022;SDS011;10669;51.076;3.714;2022-07-12T11:12:21;6.10;;;2.33;;
21022;SDS011;10669;51.076;3.714;2022-07-12T11:14:54;4.22;;;2.50;;
21022;SDS011;10669;51.076;3.714;2022-07-12T11:17:30;5.90;;;2.30;;
21022;SDS011;10669;51.076;3.714;2022-07-12T11:20:03;5.60;;;2.55;;
21022;SDS011;10669;51.076;3.714;2022-07-12T11:22:30;5.65;;;2.35;;
21022;SDS011;10669;51.076;3.714;2022-07-12T11:24:56;8.93;;;3.50;;
21022;SDS011;10669;51.076;3.714;2022-07-12T11:27:22;7.72;;;3.00;;
21022;SDS011;10669;51.076;3.714;2022-07-12T11:30:00;6.13;;;2.72;;
21022;SDS011;10669;51.076;3.714;2022-07-12T11:32:36;5.72;;;2.45;;
21022;SDS011;10669;51.076;3.714;2022-07-12T11:35:24;8.80;;;2.72;;
21022;SDS011;10669;51.076;3.714;2022-07-12T11:37:57;4.95;;;2.90;;
21022;SDS011;10669;51.076;3.714;2022-07-12T11:40:23;4.72;;;2.92;;
21022;SDS011;10669;51.076;3.714;2022-07-12T11:43:00;4.25;;;2.33;;
21022;SDS011;10669;51.076;3.714;2022-07-12T11:45:27;2.78;;;2.20;;
21022;SDS011;10669;51.076;3.714;2022-07-12T11:47:55;6.47;;;2.22;;
21022;SDS011;10669;51.076;3.714;2022-07-12T11:50:30;3.88;;;2.08;;
21022;SDS011;10669;51.076;3.714;2022-07-12T11:52:57;2.63;;;2.20;;
21022;SDS011;10669;51.076;3.714;2022-07-12T11:55:22;5.03;;;2.20;;
21022;SDS011;10669;51.076;3.714;2022-07-12T11:57:48;2.90;;;2.17;;
21022;SDS011;10669;51.076;3.714;2022-07-12T12:00:20;2.33;;;2.10;;
21022;SDS011;10669;51.076;3.714;2022-07-12T12:02:54;2.50;;;1.90;;
21022;SDS011;10669;51.076;3.714;2022-07-12T12:05:20;3.42;;;1.80;;
21022;SDS011;10669;51.076;3.714;2022-07-12T12:07:46;4.07;;;1.85;;
21022;SDS011;10669;51.076;3.714;2022-07-12T12:10:13;1.95;;;1.45;;
21022;SDS011;10669;51.076;3.714;2022-07-12T12:12:43;3.55;;;1.33;;
21022;SDS011;10669;51.076;3.714;2022-07-12T12:15:51;2.38;;;1.80;;
21022;SDS011;10669;51.076;3.714;2022-07-12T12:18:16;2.53;;;1.75;;
21022;SDS011;10669;51.076;3.714;2022-07-12T12:20:56;5.57;;;1.90;;
21022;SDS011;10669;51.076;3.714;2022-07-12T12:23:26;4.45;;;1.98;;
21022;SDS011;10669;51.076;3.714;2022-07-12T12:25:52;6.60;;;1.88;;
21022;SDS011;10669;51.076;3.714;2022-07-12T12:28:44;23.38;;;5.05;;
21022;SDS011;10669;51.076;3.714;2022-07-12T12:31:14;5.47;;;2.08;;
21022;SDS011;10669;51.076;3.714;2022-07-12T12:33:51;2.28;;;1.75;;
21022;SDS011;10669;51.076;3.714;2022-07-12T12:38:51;3.80;;;1.60;;
21022;SDS011;10669;51.076;3.714;2022-07-12T12:41:21;2.25;;;1.65;;
21022;SDS011;10669;51.076;3.714;2022-07-12T12:43:48;5.00;;;2.17;;
21022;SDS011;10669;51.076;3.714;2022-07-12T12:46:22;11.13;;;2.17;;
21022;SDS011;10669;51.076;3.714;2022-07-12T12:48:48;2.42;;;2.03;;
21022;SDS011;10669;51.076;3.714;2022-07-12T12:51:13;3.75;;;1.42;;
21022;SDS011;10669;51.076;3.714;2022-07-12T12:53:40;1.73;;;1.30;;
21022;SDS011;10669;51.076;3.714;2022-07-12T12:56:07;8.25;;;1.50;;
21022;SDS011;10669;51.076;3.714;2022-07-12T12:58:37;4.30;;;1.90;;
21022;SDS011;10669;51.076;3.714;2022-07-12T13:01:04;5.05;;;1.33;;
21022;SDS011;10669;51.076;3.714;2022-07-12T13:03:30;1.92;;;1.73;;
21022;SDS011;10669;51.076;3.714;2022-07-12T13:05:56;1.70;;;1.45;;
21022;SDS011;10669;51.076;3.714;2022-07-12T13:08:22;2.63;;;1.70;;
21022;SDS011;10669;51.076;3.714;2022-07-12T13:10:49;2.65;;;1.88;;
21022;SDS011;10669;51.076;3.714;2022-07-12T13:13:38;2.22;;;2.05;;
21022;SDS011;10669;51.076;3.714;2022-07-12T13:16:05;2.97;;;1.48;;
21022;SDS011;10669;51.076;3.714;2022-07-12T13:18:31;1.73;;;1.30;;
21022;SDS011;10669;51.076;3.714;2022-07-12T13:20:56;3.83;;;1.20;;
21022;SDS011;10669;51.076;3.714;2022-07-12T13:23:22;3.65;;;1.30;;
21022;SDS011;10669;51.076;3.714;2022-07-12T13:25:48;4.78;;;1.25;;
21022;SDS011;10669;51.076;3.714;2022-07-12T13:28:14;2.05;;;1.20;;
21022;SDS011;10669;51.076;3.714;2022-07-12T13:30:39;6.18;;;1.23;;
21022;SDS011;10669;51.076;3.714;2022-07-12T13:33:05;2.75;;;1.50;;
21022;SDS011;10669;51.076;3.714;2022-07-12T13:35:31;2.45;;;1.70;;
21022;SDS011;10669;51.076;3.714;2022-07-12T13:37:56;6.40;;;1.73;;
21022;SDS011;10669;51.076;3.714;2022-07-12T13:40:22;2.70;;;1.60;;
21022;SDS011;10669;51.076;3.714;2022-07-12T13:42:51;1.70;;;1.60;;
21022;SDS011;10669;51.076;3.714;2022-07-12T13:45:19;2.30;;;1.60;;
21022;SDS011;10669;51.076;3.714;2022-07-12T13:47:46;2.97;;;1.63;;
21022;SDS011;10669;51.076;3.714;2022-07-12T13:50:13;1.55;;;1.40;;
21022;SDS011;10669;51.076;3.714;2022-07-12T13:52:40;3.33;;;1.67;;
21022;SDS011;10669;51.076;3.714;2022-07-12T13:55:07;2.55;;;1.60;;
21022;SDS011;10669;51.076;3.714;2022-07-12T13:57:34;2.42;;;1.63;;
21022;SDS011;10669;51.076;3.714;2022-07-12T14:00:02;7.90;;;1.33;;
21022;SDS011;10669;51.076;3.714;2022-07-12T14:02:35;2.65;;;1.30;;
21022;SDS011;10669;51.076;3.714;2022-07-12T14:05:01;1.85;;;1.48;;
21022;SDS011;10669;51.076;3.714;2022-07-12T14:07:28;2.08;;;1.50;;
21022;SDS011;10669;51.076;3.714;2022-07-12T14:09:53;1.60;;;1.23;;
21022;SDS011;10669;51.076;3.714;2022-07-12T14:12:19;3.78;;;1.55;;
21022;SDS011;10669;51.076;3.714;2022-07-12T14:14:44;10.25;;;2.08;;
21022;SDS011;10669;51.076;3.714;2022-07-12T14:17:43;3.33;;;1.40;;
21022;SDS011;10669;51.076;3.714;2022-07-12T14:20:14;1.60;;;1.23;;
21022;SDS011;10669;51.076;3.714;2022-07-12T14:22:41;2.47;;;1.70;;
21022;SDS011;10669;51.076;3.714;2022-07-12T14:25:08;3.88;;;1.80;;
21022;SDS011;10669;51.076;3.714;2022-07-12T14:27:34;1.67;;;1.50;;
21022;SDS011;10669;51.076;3.714;2022-07-12T14:30:00;1.73;;;1.63;;
21022;SDS011;10669;51.076;3.714;2022-07-12T14:32:27;1.67;;;1.40;;
21022;SDS011;10669;51.076;3.714;2022-07-12T14:34:53;3.97;;;1.38;;
21022;SDS011;10669;51.076;3.714;2022-07-12T14:37:18;3.45;;;1.58;;
21022;SDS011;10669;51.076;3.714;2022-07-12T14:39:44;2.90;;;1.40;;
21022;SDS011;10669;51.076;3.714;2022-07-12T14:42:10;2.90;;;1.58;;
21022;SDS011;10669;51.076;3.714;2022-07-12T14:44:35;3.95;;;1.50;;
21022;SDS011;10669;51.076;3.714;2022-07-12T14:47:01;3.85;;;1.60;;
21022;SDS011;10669;51.076;3.714;2022-07-12T14:49:27;2.20;;;1.45;;
21022;SDS011;10669;51.076;3.714;2022-07-12T14:51:53;4.35;;;1.77;;
21022;SDS011;10669;51.076;3.714;2022-07-12T14:54:19;1.92;;;1.67;;
21022;SDS011;10669;51.076;3.714;2022-07-12T14:56:45;2.03;;;1.73;;
21022;SDS011;10669;51.076;3.714;2022-07-12T14:59:11;1.88;;;1.33;;
21022;SDS011;10669;51.076;3.714;2022-07-12T15:01:36;2.50;;;1.58;;
21022;SDS011;10669;51.076;3.714;2022-07-12T15:04:02;4.50;;;2.13;;
21022;SDS011;10669;51.076;3.714;2022-07-12T15:06:28;1.90;;;1.70;;
21022;SDS011;10669;51.076;3.714;2022-07-12T15:08:54;1.90;;;1.70;;
21022;SDS011;10669;51.076;3.714;2022-07-12T15:11:20;2.03;;;1.75;;
21022;SDS011;10669;51.076;3.714;2022-07-12T15:13:46;1.77;;;1.67;;
21022;SDS011;10669;51.076;3.714;2022-07-12T15:16:12;7.15;;;1.77;;
21022;SDS011;10669;51.076;3.714;2022-07-12T15:18:38;5.43;;;1.60;;